Time;durP1;ratioP1;P1;durP2;ratioP2;P2;SDS_P1;SDS_P2;PMS_P1;PMS_P2;Temp;Humidity;BMP_temperature;BMP_pressure;BME280_temperature;BME280_humidity;BME280_pressure;Samples;Min_cycle;Max_cycle;Signal;HPM_P1;HPM_P2
2023/09/17 00:05:38;;;;;;;4.45;2.10;;;;;;;18.10;61.95;97766.41;10334040;28;20054;-64
2023/09/17 00:10:59;;;;;;;2.70;1.90;;;;;;;18.03;61.74;97763.34;10333480;28;20205;-64
2023/09/17 00:16:19;;;;;;;8.48;2.03;;;;;;;18.02;61.88;97766.81;10319002;28;20514;-64
2023/09/17 00:21:40;;;;;;;4.60;2.25;;;;;;;18.00;62.28;97769.56;10318697;28;20554;-65
2023/09/17 00:27:01;;;;;;;3.42;1.77;;;;;;;17.93;62.52;97774.25;10333383;28;20117;-64
2023/09/17 00:32:22;;;;;;;2.85;1.70;;;;;;;17.84;62.70;97768.94;10318370;28;20121;-64
2023/09/17 00:37:43;;;;;;;2.50;1.77;;;;;;;17.77;62.79;97782.09;10321864;28;20074;-63
2023/09/17 00:43:04;;;;;;;3.80;1.63;;;;;;;17.68;62.92;97775.38;10341246;28;20069;-63
2023/09/17 00:48:26;;;;;;;2.88;1.92;;;;;;;17.62;63.30;97774.38;10340238;28;20133;-63
2023/09/17 00:53:46;;;;;;;5.82;2.13;;;;;;;17.60;63.64;97782.78;10325963;28;20453;-63
2023/09/17 00:59:08;;;;;;;3.55;1.98;;;;;;;17.53;63.99;97778.97;10325535;28;20117;-63
2023/09/17 01:04:29;;;;;;;4.53;1.67;;;;;;;17.45;63.38;97776.53;10311901;28;20129;-64
2023/09/17 01:09:50;;;;;;;3.80;2.55;;;;;;;17.31;63.82;97781.59;10325156;28;20081;-64
2023/09/17 01:15:11;;;;;;;5.53;2.65;;;;;;;17.17;64.05;97783.81;10324964;28;20134;-64
2023/09/17 01:20:34;;;;;;;3.35;2.38;;;;;;;17.03;64.81;97783.22;10339377;28;20077;-63
2023/09/17 01:26:06;;;;;;;7.55;2.95;;;;;;;16.93;65.44;97779.97;10311135;28;20154;-64
2023/09/17 01:31:29;;;;;;;4.75;2.92;;;;;;;16.82;65.50;97778.81;10299187;28;20166;-63
2023/09/17 01:36:52;;;;;;;5.20;3.20;;;;;;;16.73;65.59;97774.91;10338489;28;20456;-63
2023/09/17 01:42:13;;;;;;;3.78;2.67;;;;;;;16.70;66.21;97778.28;10310588;28;20141;-64
2023/09/17 01:47:34;;;;;;;5.03;2.90;;;;;;;16.62;66.60;97769.44;10322882;28;20043;-63
2023/09/17 01:52:55;;;;;;;2.53;2.33;;;;;;;16.52;66.37;97773.25;10323419;28;20121;-64
2023/09/17 01:58:17;;;;;;;3.70;2.65;;;;;;;16.43;66.71;97765.09;10338295;28;20142;-64
2023/09/17 02:03:39;;;;;;;5.17;3.00;;;;;;;16.39;66.86;97773.34;10322577;28;20081;-64
2023/09/17 02:08:59;;;;;;;3.80;2.75;;;;;;;16.28;66.85;97770.06;10336346;28;20070;-64
2023/09/17 02:14:20;;;;;;;5.95;3.33;;;;;;;16.22;67.54;97775.44;10337553;28;20149;-64
2023/09/17 02:19:42;;;;;;;7.60;3.58;;;;;;;16.19;67.61;97778.78;10336968;28;20070;-64
2023/09/17 02:25:03;;;;;;;5.88;3.42;;;;;;;16.08;67.48;97777.56;10336694;28;20077;-64
2023/09/17 02:30:25;;;;;;;6.78;3.75;;;;;;;15.98;68.11;97774.28;10336453;28;20173;-63
2023/09/17 02:35:45;;;;;;;7.45;3.40;;;;;;;15.90;68.25;97776.72;10321711;28;20125;-64
2023/09/17 02:41:06;;;;;;;6.78;4.47;;;;;;;15.90;68.61;97790.78;10321447;28;20529;-64
2023/09/17 02:46:27;;;;;;;6.15;4.22;;;;;;;15.87;68.85;97786.44;10321349;28;20082;-64
2023/09/17 02:51:51;;;;;;;5.57;3.83;;;;;;;15.83;69.16;97794.69;10335676;28;20073;-63
2023/09/17 02:57:11;;;;;;;7.88;3.40;;;;;;;15.82;69.15;97790.41;10307323;28;20142;-63
2023/09/17 03:02:32;;;;;;;4.13;3.25;;;;;;;15.86;69.04;97779.34;10320491;28;20180;-63
2023/09/17 03:07:56;;;;;;;6.18;3.47;;;;;;;15.88;69.07;97777.34;10306887;28;20381;-63
2023/09/17 03:13:18;;;;;;;4.65;3.42;;;;;;;15.88;69.31;97782.25;10320255;28;20066;-64
2023/09/17 03:18:39;;;;;;;6.18;3.72;;;;;;;15.82;69.50;97779.88;10320042;28;20556;-64
2023/09/17 03:24:00;;;;;;;3.72;2.92;;;;;;;15.84;70.00;97784.91;10320028;28;20078;-64
2023/09/17 03:29:24;;;;;;;8.18;3.42;;;;;;;15.84;70.13;97776.44;10333294;28;20117;-64
2023/09/17 03:34:45;;;;;;;7.63;3.42;;;;;;;15.81;70.01;97786.88;10333243;28;20065;-63
2023/09/17 03:40:08;;;;;;;6.13;3.55;;;;;;;15.78;69.93;97801.47;10319779;28;20069;-63
2023/09/17 03:45:31;;;;;;;4.90;3.30;;;;;;;15.68;70.26;97798.91;10319193;28;20070;-63
2023/09/17 03:50:52;;;;;;;4.63;3.25;;;;;;;15.59;70.42;97803.38;10319363;28;20562;-63
2023/09/17 03:56:13;;;;;;;7.45;3.55;;;;;;;15.60;70.64;97796.41;10319766;28;20404;-63
2023/09/17 04:01:34;;;;;;;5.90;3.15;;;;;;;15.54;70.62;97804.56;10318987;28;20081;-63
2023/09/17 04:06:56;;;;;;;4.47;3.30;;;;;;;15.51;70.53;97802.97;10318921;28;20457;-63
2023/09/17 04:12:16;;;;;;;4.07;3.40;;;;;;;15.42;71.04;97803.94;10336566;28;20062;-63
2023/09/17 04:17:37;;;;;;;5.35;3.55;;;;;;;15.31;71.22;97802.72;10341708;28;20050;-63
2023/09/17 04:22:58;;;;;;;5.13;3.60;;;;;;;15.25;70.96;97799.59;10341716;28;20073;-63
2023/09/17 04:28:19;;;;;;;6.47;3.92;;;;;;;15.17;71.00;97805.56;10341251;28;20045;-63
2023/09/17 04:33:40;;;;;;;4.40;3.33;;;;;;;15.05;71.31;97821.06;10326391;28;20074;-63
2023/09/17 04:39:01;;;;;;;4.78;3.80;;;;;;;14.96;71.34;97825.56;10326735;28;20113;-63
2023/09/17 04:44:22;;;;;;;6.03;3.60;;;;;;;14.91;71.85;97823.16;10325732;28;20074;-63
2023/09/17 04:49:43;;;;;;;5.18;3.92;;;;;;;14.99;72.02;97829.91;10326106;28;20065;-63
2023/09/17 04:55:05;;;;;;;7.78;3.88;;;;;;;15.21;72.45;97827.50;10325663;28;20066;-63
2023/09/17 05:00:27;;;;;;;6.38;3.88;;;;;;;15.72;72.44;97844.13;10325562;28;20051;-63
2023/09/17 05:05:49;;;;;;;6.57;3.75;;;;;;;16.37;72.70;97840.84;10324712;28;20147;-64
2023/09/17 05:11:11;;;;;;;7.43;4.10;;;;;;;16.99;71.72;97843.00;10325298;28;20050;-65
2023/09/17 05:16:33;;;;;;;5.53;3.97;;;;;;;17.84;71.08;97847.97;10324577;28;20069;-64
2023/09/17 05:21:56;;;;;;;6.20;3.92;;;;;;;21.75;68.24;97856.00;10338354;28;20057;-62
2023/09/17 05:27:17;;;;;;;5.53;3.78;;;;;;;26.98;59.78;97878.28;10323668;28;20078;-63
2023/09/17 05:32:38;;;;;;;5.45;3.35;;;;;;;30.58;50.17;97876.06;10324121;28;20125;-65
2023/09/17 05:37:59;;;;;;;5.45;3.70;;;;;;;32.99;44.36;97883.41;10324196;28;20178;-65
2023/09/17 05:43:20;;;;;;;6.40;2.97;;;;;;;35.08;38.48;97897.38;10323322;28;20103;-66
2023/09/17 05:48:41;;;;;;;5.60;3.03;;;;;;;36.80;32.82;97905.06;10336691;28;20467;-66
2023/09/17 05:54:02;;;;;;;4.63;2.90;;;;;;;38.44;28.83;97911.25;10323149;28;20070;-66
2023/09/17 05:59:23;;;;;;;3.35;2.47;;;;;;;40.65;25.42;97908.44;10337273;28;20077;-66
2023/09/17 06:04:47;;;;;;;3.08;2.60;;;;;;;43.14;21.81;97911.34;10337295;28;20460;-66
2023/09/17 06:10:09;;;;;;;3.75;2.38;;;;;;;46.04;17.69;97913.22;10337099;28;20552;-66
2023/09/17 06:15:29;;;;;;;2.83;2.00;;;;;;;48.90;14.80;97903.09;10336506;28;20073;-68
2023/09/17 06:20:50;;;;;;;3.90;1.90;;;;;;;50.31;11.73;97900.25;10336792;28;20046;-68
2023/09/17 06:26:11;;;;;;;3.38;1.63;;;;;;;51.85;10.60;97896.72;10336046;28;20483;-68
2023/09/17 06:31:32;;;;;;;2.60;1.60;;;;;;;52.78;9.61;97910.44;10336331;28;20070;-68
2023/09/17 06:36:53;;;;;;;3.17;1.85;;;;;;;51.94;9.28;97897.31;10307319;28;20062;-68
2023/09/17 06:42:14;;;;;;;2.67;1.42;;;;;;;51.90;8.88;97885.81;10320955;28;20126;-68
2023/09/17 06:47:35;;;;;;;2.83;1.38;;;;;;;53.09;8.79;97892.41;10335605;28;20070;-68
2023/09/17 06:52:56;;;;;;;2.90;1.52;;;;;;;54.35;7.87;97890.19;10335284;28;20069;-69
2023/09/17 06:58:17;;;;;;;3.20;1.50;;;;;;;54.07;7.19;97882.06;10320541;28;20078;-68
2023/09/17 07:03:38;;;;;;;2.55;1.70;;;;;;;53.77;7.18;97892.00;10320024;28;20129;-68
2023/09/17 07:08:59;;;;;;;3.60;2.08;;;;;;;54.19;7.42;97890.34;10334741;28;20066;-68
2023/09/17 07:14:20;;;;;;;5.32;1.90;;;;;;;54.92;6.96;97896.53;10334433;28;20541;-68
2023/09/17 07:19:41;;;;;;;2.58;1.85;;;;;;;55.23;6.37;97896.75;10334300;28;20174;-68
2023/09/17 07:25:04;;;;;;;3.45;1.40;;;;;;;55.96;6.05;97894.31;10333954;28;20069;-69
2023/09/17 07:30:25;;;;;;;3.50;1.55;;;;;;;56.49;5.98;97897.09;10334243;28;20240;-68
2023/09/17 07:35:46;;;;;;;2.83;1.60;;;;;;;56.49;5.42;97899.41;10333709;28;20459;-68
2023/09/17 07:41:06;;;;;;;3.00;1.38;;;;;;;55.76;6.22;97893.69;10333980;28;20152;-68
2023/09/17 07:46:27;;;;;;;2.13;1.30;;;;;;;57.17;5.04;97901.00;10333023;28;20382;-69
2023/09/17 07:51:50;;;;;;;2.05;1.27;;;;;;;58.03;5.07;97891.81;10333368;28;20136;-68
2023/09/17 07:57:12;;;;;;;2.88;1.45;;;;;;;57.14;4.71;97888.53;10333814;28;20377;-68
2023/09/17 08:02:33;;;;;;;2.05;1.35;;;;;;;58.03;5.02;97891.81;10333355;28;20389;-68
2023/09/17 08:07:54;;;;;;;2.30;1.17;;;;;;;58.71;4.87;97902.69;10333185;28;20556;-69
2023/09/17 08:13:16;;;;;;;1.70;1.30;;;;;;;58.97;4.87;97907.59;10318894;28;20081;-69
2023/09/17 08:18:37;;;;;;;2.55;1.08;;;;;;;59.36;4.26;97925.94;10332893;28;20054;-68
2023/09/17 08:23:58;;;;;;;2.25;1.23;;;;;;;59.36;4.90;97928.94;10332470;28;20039;-69
2023/09/17 08:29:20;;;;;;;4.15;1.20;;;;;;;60.14;4.68;97920.09;10332479;28;20058;-68
2023/09/17 08:34:41;;;;;;;1.88;1.30;;;;;;;61.60;3.96;97926.34;10332864;28;20477;-69
2023/09/17 08:40:05;;;;;;;1.83;1.50;;;;;;;58.67;4.60;97914.50;10332101;28;20065;-69
2023/09/17 08:45:27;;;;;;;3.88;1.50;;;;;;;58.96;4.54;97912.22;10332378;28;20053;-69
2023/09/17 08:50:50;;;;;;;1.60;1.50;;;;;;;59.27;4.96;97899.28;10317880;28;20408;-69
2023/09/17 08:56:11;;;;;;;2.83;1.70;;;;;;;59.63;4.92;97896.06;10332204;28;20046;-68
2023/09/17 09:01:32;;;;;;;2.13;2.00;;;;;;;58.85;4.16;97879.09;10324663;28;20117;-68
2023/09/17 09:06:54;;;;;;;5.93;1.95;;;;;;;57.01;4.98;97879.69;10325446;28;20045;-68
2023/09/17 09:12:15;;;;;;;3.33;1.50;;;;;;;57.26;5.78;97878.09;10339216;28;20081;-68
2023/09/17 09:17:40;;;;;;;1.90;1.58;;;;;;;56.67;5.47;97879.25;10338789;28;20077;-68
2023/09/17 09:23:01;;;;;;;2.83;1.90;;;;;;;57.21;5.48;97870.53;10338528;28;20400;-68
2023/09/17 09:28:22;;;;;;;3.88;1.83;;;;;;;57.28;5.12;97868.84;10338918;28;20054;-68
2023/09/17 09:33:42;;;;;;;3.42;1.70;;;;;;;57.45;5.29;97857.81;10338166;28;20078;-69
2023/09/17 09:39:04;;;;;;;2.20;1.90;;;;;;;56.58;6.16;97863.88;10323569;28;20046;-68
2023/09/17 09:44:25;;;;;;;1.95;1.85;;;;;;;55.46;5.53;97864.97;10337699;28;20093;-69
2023/09/17 09:49:46;;;;;;;2.30;1.52;;;;;;;55.67;6.65;97875.31;10309861;28;20058;-69
2023/09/17 09:55:07;;;;;;;1.77;1.52;;;;;;;55.38;5.71;97872.59;10337795;28;20049;-70
2023/09/17 10:00:29;;;;;;;1.30;1.20;;;;;;;54.78;6.91;97874.88;10337258;28;20073;-69
2023/09/17 10:05:50;;;;;;;1.52;1.20;;;;;;;54.46;6.90;97870.25;10337086;28;20502;-68
2023/09/17 10:11:12;;;;;;;3.28;1.25;;;;;;;53.96;6.84;97862.25;10336188;28;20599;-68
2023/09/17 10:16:36;;;;;;;2.37;1.10;;;;;;;53.56;7.14;97858.34;10322692;28;20054;-70
2023/09/17 10:21:57;;;;;;;2.47;1.00;;;;;;;54.47;7.02;97853.69;10322847;28;20554;-68
2023/09/17 10:27:18;;;;;;;1.20;1.10;;;;;;;56.23;6.25;97846.97;10322072;28;20074;-68
2023/09/17 10:32:40;;;;;;;1.42;1.15;;;;;;;53.66;7.32;97845.31;10335625;28;20065;-69
2023/09/17 10:38:03;;;;;;;1.52;0.98;;;;;;;53.49;7.24;97836.06;10335832;28;20405;-68
2023/09/17 10:43:25;;;;;;;1.98;1.00;;;;;;;55.07;6.29;97850.78;10335818;28;20057;-69
2023/09/17 10:48:46;;;;;;;2.78;0.80;;;;;;;55.27;5.79;97853.72;10335832;28;20385;-69
2023/09/17 10:54:07;;;;;;;2.15;0.85;;;;;;;55.06;6.39;97844.09;10334369;28;20054;-69
2023/09/17 10:59:30;;;;;;;3.75;0.93;;;;;;;54.35;6.13;97843.09;10334891;28;20504;-69
2023/09/17 11:04:51;;;;;;;1.55;0.75;;;;;;;53.16;7.14;97833.53;10320652;28;20058;-70
2023/09/17 11:10:14;;;;;;;1.83;0.80;;;;;;;53.74;6.46;97838.50;10334762;28;20443;-69
2023/09/17 11:15:56;;;;;;;2.53;0.75;;;;;;;53.51;6.51;97832.84;10322501;28;20058;-69
2023/09/17 11:21:17;;;;;;;2.40;0.70;;;;;;;52.50;7.13;97835.91;10334541;28;20043;-68
2023/09/17 11:26:40;;;;;;;1.98;0.60;;;;;;;51.27;7.86;97834.78;10334082;28;20412;-69
2023/09/17 11:32:03;;;;;;;0.88;0.57;;;;;;;50.79;8.32;97838.59;10320125;28;20062;-68
2023/09/17 11:37:25;;;;;;;1.45;0.70;;;;;;;51.43;7.11;97845.09;10334202;28;20042;-68
2023/09/17 11:42:46;;;;;;;1.95;0.88;;;;;;;48.34;8.79;97838.97;10333474;28;20058;-68
2023/09/17 11:48:07;;;;;;;1.52;0.88;;;;;;;41.27;14.27;97851.03;10333746;28;20055;-68
2023/09/17 11:53:29;;;;;;;4.93;1.02;;;;;;;37.78;16.54;97855.63;10318948;28;20047;-67
2023/09/17 11:59:10;;;;;;;2.30;1.10;;;;;;;35.99;19.37;97855.47;10333297;28;20050;-67
2023/09/17 12:04:35;;;;;;;1.63;1.25;;;;;;;35.14;19.93;97847.19;10333469;28;20404;-67
2023/09/17 12:10:06;;;;;;;1.40;1.23;;;;;;;34.55;21.77;97849.50;10319076;28;20055;-67
2023/09/17 12:15:28;;;;;;;3.42;1.20;;;;;;;33.28;23.29;97851.03;10333142;28;20046;-64
2023/09/17 12:20:56;;;;;;;2.67;1.05;;;;;;;31.92;25.31;97836.91;10304861;28;20117;-64
2023/09/17 12:26:31;;;;;;;1.85;1.30;;;;;;;32.33;24.48;97839.13;10332791;28;20491;-66
2023/09/17 12:31:52;;;;;;;1.63;1.30;;;;;;;32.12;24.78;97838.75;10333461;28;20515;-66
2023/09/17 12:37:13;;;;;;;1.67;0.90;;;;;;;32.05;24.33;97823.00;10298986;28;20112;-66
2023/09/17 12:42:35;;;;;;;2.20;1.23;;;;;;;32.38;24.21;97826.06;10326437;28;20122;-66
2023/09/17 12:47:57;;;;;;;2.47;1.00;;;;;;;32.22;23.92;97814.75;10340423;28;20125;-64
2023/09/17 12:53:20;;;;;;;2.85;0.90;;;;;;;31.95;24.52;97811.63;10339616;28;20188;-66
2023/09/17 12:58:41;;;;;;;1.33;0.90;;;;;;;31.28;25.40;97805.41;10312500;28;20042;-66
2023/09/17 13:04:02;;;;;;;;;;;;;;;30.78;26.10;97803.84;10339903;28;20054;-65
2023/09/17 13:09:25;;;;;;;2.67;1.30;;;;;;;30.57;26.65;97791.09;10339330;28;19921;-65
2023/09/17 13:14:47;;;;;;;2.40;1.17;;;;;;;29.86;27.60;97793.22;10324592;28;20046;-63
2023/09/17 13:20:09;;;;;;;1.92;1.30;;;;;;;29.98;27.63;97783.03;10324418;28;20181;-66
2023/09/17 13:25:30;;;;;;;;;;;;;;;30.22;27.55;97779.97;10311533;28;20562;-65
2023/09/17 13:30:51;;;;;;;2.72;1.27;;;;;;;30.09;27.63;97779.34;10338487;28;19960;-66
2023/09/17 13:36:13;;;;;;;3.40;1.17;;;;;;;30.09;27.14;97770.72;10323750;28;20055;-65
2023/09/17 13:41:34;;;;;;;2.28;1.48;;;;;;;29.82;27.25;97767.38;10323618;28;20093;-65
2023/09/17 13:46:55;;;;;;;1.88;1.23;;;;;;;29.49;27.91;97771.94;10336708;28;20450;-65
2023/09/17 13:52:16;;;;;;;1.95;1.30;;;;;;;29.50;27.88;97758.97;10323121;28;20484;-65
2023/09/17 13:57:37;;;;;;;3.00;1.42;;;;;;;29.43;27.66;97760.44;10338250;28;20385;-65
2023/09/17 14:03:15;;;;;;;4.30;1.20;;;;;;;29.42;27.68;97751.09;10337225;28;20416;-66
2023/09/17 14:08:36;;;;;;;4.90;1.45;;;;;;;29.46;27.37;97767.63;10336984;28;20046;-65
2023/09/17 14:13:58;;;;;;;3.70;1.70;;;;;;;29.16;27.55;97754.88;10336901;28;20122;-66
2023/09/17 14:19:19;;;;;;;1.83;1.10;;;;;;;28.94;27.87;97757.88;10322582;28;20065;-65
2023/09/17 14:24:40;;;;;;;2.05;1.10;;;;;;;29.14;27.59;97754.16;10336691;28;20058;-65
2023/09/17 14:30:03;;;;;;;2.95;1.13;;;;;;;29.17;26.93;97753.44;10336582;28;20424;-65
2023/09/17 14:35:26;;;;;;;3.67;1.20;;;;;;;29.17;27.48;97759.19;10322354;28;20054;-63
2023/09/17 14:40:47;;;;;;;2.90;1.35;;;;;;;28.87;27.47;97757.19;10335984;28;20058;-65
2023/09/17 14:46:08;;;;;;;4.30;1.48;;;;;;;28.72;27.87;97755.78;10307588;28;20053;-66
2023/09/17 14:51:33;;;;;;;1.85;1.20;;;;;;;28.45;28.06;97752.31;10335596;28;20042;-65
2023/09/17 14:56:54;;;;;;;1.80;1.48;;;;;;;28.21;28.87;97747.34;10335265;28;20046;-65
2023/09/17 15:02:16;;;;;;;2.40;1.17;;;;;;;28.27;28.92;97750.16;10335196;28;20121;-65
2023/09/17 15:07:39;;;;;;;2.40;1.50;;;;;;;28.24;29.29;97752.34;10334675;28;20050;-65
2023/09/17 15:13:01;;;;;;;3.50;1.70;;;;;;;28.03;30.20;97753.81;10319943;28;20050;-65
2023/09/17 15:18:22;;;;;;;3.85;1.40;;;;;;;27.95;30.48;97751.66;10333588;28;20061;-65
2023/09/17 15:23:43;;;;;;;2.25;1.23;;;;;;;27.85;31.02;97751.69;10334305;28;20054;-65
2023/09/17 15:29:03;;;;;;;4.32;1.80;;;;;;;27.82;31.30;97749.53;10334259;28;20078;-65
2023/09/17 15:34:24;;;;;;;4.07;1.20;;;;;;;27.71;31.81;97751.00;10333945;28;20070;-65
2023/09/17 15:39:46;;;;;;;2.90;1.23;;;;;;;27.60;32.48;97759.56;10319025;28;20109;-66
2023/09/17 15:45:07;;;;;;;3.33;1.58;;;;;;;27.50;32.43;97755.94;10333583;28;20400;-65
2023/09/17 15:50:29;;;;;;;3.28;1.63;;;;;;;27.32;32.60;97756.69;10318801;28;20073;-65
2023/09/17 15:55:52;;;;;;;3.60;1.92;;;;;;;27.16;33.51;97754.50;10319398;28;20054;-65
2023/09/17 16:01:13;;;;;;;3.50;2.55;;;;;;;27.09;33.57;97755.91;10333097;28;20086;-65
2023/09/17 16:06:34;;;;;;;4.25;1.50;;;;;;;26.96;33.85;97754.41;10318972;28;20053;-65
2023/09/17 16:11:56;;;;;;;5.32;1.90;;;;;;;26.82;34.06;97746.47;10341443;28;20500;-65
2023/09/17 16:17:17;;;;;;;3.67;1.48;;;;;;;26.65;35.16;97756.47;10341492;28;20170;-65
2023/09/17 16:22:38;;;;;;;3.33;1.57;;;;;;;26.50;35.20;97761.41;10341219;28;20488;-65
2023/09/17 16:27:59;;;;;;;2.22;1.20;;;;;;;26.24;36.00;97764.78;10340763;28;20494;-65
2023/09/17 16:33:20;;;;;;;3.05;1.38;;;;;;;26.02;35.79;97758.94;10340938;28;20093;-65
2023/09/17 16:38:41;;;;;;;4.40;1.48;;;;;;;25.78;35.90;97765.94;10339388;28;20061;-65
2023/09/17 16:44:02;;;;;;;2.17;1.33;;;;;;;25.58;36.80;97771.47;10340307;28;20061;-65
2023/09/17 16:49:23;;;;;;;5.30;1.50;;;;;;;25.36;37.42;97769.81;10339860;28;20488;-65
2023/09/17 16:54:44;;;;;;;1.67;1.48;;;;;;;25.12;37.54;97772.44;10339801;28;20073;-65
2023/09/17 17:00:05;;;;;;;4.10;1.30;;;;;;;24.95;37.82;97776.50;10339942;28;20074;-65
2023/09/17 17:05:26;;;;;;;4.13;1.63;;;;;;;24.80;38.96;97769.91;10324461;28;20409;-64
2023/09/17 17:10:47;;;;;;;2.65;1.90;;;;;;;24.62;39.55;97772.56;10339318;28;20058;-65
2023/09/17 17:16:08;;;;;;;3.80;1.67;;;;;;;24.45;39.32;97771.63;10338831;28;20104;-65
2023/09/17 17:21:29;;;;;;;3.42;2.25;;;;;;;24.33;39.81;97771.47;10338851;28;20084;-64
2023/09/17 17:26:50;;;;;;;3.53;2.08;;;;;;;24.21;40.13;97767.00;10338393;28;20069;-65
2023/09/17 17:32:11;;;;;;;4.40;2.03;;;;;;;24.11;40.76;97766.84;10338460;28;20461;-65
2023/09/17 17:37:32;;;;;;;6.20;2.17;;;;;;;23.99;40.49;97773.09;10338265;28;20133;-65
2023/09/17 17:42:55;;;;;;;6.35;2.45;;;;;;;23.88;41.09;97771.50;10323643;28;20145;-65
2023/09/17 17:48:18;;;;;;;3.78;2.15;;;;;;;23.76;41.33;97773.44;10323366;28;20488;-64
2023/09/17 17:53:39;;;;;;;4.97;2.13;;;;;;;23.57;42.51;97778.09;10323835;28;20047;-62
2023/09/17 17:58:59;;;;;;;7.35;2.50;;;;;;;23.47;42.51;97767.25;10337452;28;20185;-64
2023/09/17 18:04:20;;;;;;;7.72;2.35;;;;;;;23.42;42.65;97777.13;10337346;28;20136;-63
2023/09/17 18:09:41;;;;;;;6.03;2.95;;;;;;;23.31;43.11;97778.34;10336982;28;20070;-62
2023/09/17 18:15:03;;;;;;;10.10;2.63;;;;;;;23.24;43.40;97776.78;10336845;28;20058;-62
2023/09/17 18:20:25;;;;;;;9.10;3.10;;;;;;;23.14;44.62;97778.06;10322144;28;20042;-62
2023/09/17 18:25:46;;;;;;;6.05;2.50;;;;;;;23.08;44.02;97769.41;10336616;28;20057;-62
2023/09/17 18:31:07;;;;;;;3.80;2.75;;;;;;;22.99;45.13;97775.63;10335321;28;20169;-62
2023/09/17 18:36:28;;;;;;;3.90;2.53;;;;;;;22.91;44.89;97764.81;10335960;28;20046;-62
2023/09/17 18:41:48;;;;;;;10.32;3.35;;;;;;;22.83;45.20;97764.63;10336009;28;20535;-62
2023/09/17 18:47:09;;;;;;;8.18;3.25;;;;;;;22.78;45.91;97766.69;10335178;28;20520;-62
2023/09/17 18:52:30;;;;;;;4.95;2.95;;;;;;;22.74;47.54;97768.72;10335081;28;20058;-62
2023/09/17 18:57:50;;;;;;;3.70;2.42;;;;;;;22.64;46.20;97768.50;10320541;28;20128;-62
2023/09/17 19:03:11;;;;;;;5.07;2.30;;;;;;;22.52;47.55;97766.13;10335178;28;20077;-62
2023/09/17 19:08:34;;;;;;;4.57;2.67;;;;;;;22.45;47.66;97764.56;10334637;28;20457;-64
2023/09/17 19:13:56;;;;;;;5.30;2.88;;;;;;;22.40;48.11;97751.66;10334577;28;20078;-62
2023/09/17 19:19:17;;;;;;;5.20;2.67;;;;;;;22.35;48.79;97747.28;10334392;28;20050;-62
2023/09/17 19:24:38;;;;;;;6.80;2.25;;;;;;;22.25;48.83;97744.94;10334200;28;20046;-62
2023/09/17 19:29:59;;;;;;;5.40;2.92;;;;;;;22.19;49.12;97741.97;10333934;28;20066;-62
2023/09/17 19:35:21;;;;;;;5.28;3.00;;;;;;;22.14;49.55;97735.47;10334507;28;20484;-62
2023/09/17 19:40:42;;;;;;;3.67;2.78;;;;;;;22.08;49.31;97726.81;10333759;28;20085;-62
2023/09/17 19:46:05;;;;;;;4.07;2.53;;;;;;;22.00;50.09;97720.91;10333540;28;20515;-62
2023/09/17 19:51:26;;;;;;;5.53;2.55;;;;;;;21.98;50.36;97718.75;10333659;28;20535;-63
2023/09/17 19:56:47;;;;;;;5.35;2.60;;;;;;;21.93;50.11;97711.56;10318453;28;20050;-62
2023/09/17 20:02:08;;;;;;;6.53;2.78;;;;;;;21.88;50.29;97704.31;10333342;28;20062;-62
2023/09/17 20:07:31;;;;;;;6.32;2.80;;;;;;;21.84;50.29;97695.72;10318796;28;20066;-62
2023/09/17 20:12:51;;;;;;;5.30;2.70;;;;;;;21.77;50.52;97687.72;10332997;28;20122;-62
2023/09/17 20:18:12;;;;;;;4.55;3.03;;;;;;;21.68;50.71;97684.69;10333097;28;20205;-62
2023/09/17 20:23:38;;;;;;;4.78;3.03;;;;;;;21.61;50.48;97691.63;10333373;28;20057;-62
2023/09/17 20:29:00;;;;;;;5.03;2.90;;;;;;;21.59;49.89;97679.50;10319142;28;20058;-62
2023/09/17 20:34:22;;;;;;;6.50;2.70;;;;;;;21.58;50.87;97680.91;10332518;28;20085;-62
2023/09/17 20:39:42;;;;;;;3.20;2.72;;;;;;;21.53;50.50;97693.59;10332732;28;20093;-62
2023/09/17 20:45:03;;;;;;;3.63;2.40;;;;;;;21.46;50.74;97684.19;10332672;28;20485;-63
2023/09/17 20:50:25;;;;;;;5.97;2.80;;;;;;;21.45;51.19;97690.53;10332059;28;20046;-62
2023/09/17 20:55:46;;;;;;;5.70;2.60;;;;;;;21.41;51.17;97677.69;10337535;28;20125;-62
2023/09/17 21:01:09;;;;;;;2.78;2.50;;;;;;;21.37;51.13;97685.38;10339648;28;20077;-62
2023/09/17 21:06:30;;;;;;;2.83;2.40;;;;;;;21.33;51.56;97677.50;10339658;28;20169;-61
2023/09/17 21:11:51;;;;;;;4.75;2.85;;;;;;;21.24;51.74;97684.34;10339121;28;20074;-62
2023/09/17 21:17:12;;;;;;;5.80;2.80;;;;;;;21.14;51.69;97676.31;10339180;28;20066;-63
2023/09/17 21:22:34;;;;;;;3.80;2.53;;;;;;;21.05;52.33;97671.81;10339105;28;20061;-63
2023/09/17 21:27:55;;;;;;;2.50;2.20;;;;;;;20.99;52.47;97679.44;10338860;28;20122;-63
2023/09/17 21:33:16;;;;;;;4.65;2.80;;;;;;;20.90;52.38;97683.47;10338703;28;20081;-63
2023/09/17 21:38:38;;;;;;;3.75;2.65;;;;;;;20.79;52.16;97686.03;10338880;28;20124;-63
2023/09/17 21:43:59;;;;;;;5.70;3.10;;;;;;;20.78;52.37;97695.22;10338380;28;20133;-62
2023/09/17 21:49:21;;;;;;;6.07;2.67;;;;;;;20.79;52.69;97702.34;10323348;28;20112;-63
2023/09/17 21:54:42;;;;;;;4.43;2.63;;;;;;;20.81;52.84;97694.59;10337677;28;20448;-63
2023/09/17 22:00:03;;;;;;;5.32;2.20;;;;;;;20.84;52.63;97692.53;10337426;28;20077;-62
2023/09/17 22:05:24;;;;;;;2.92;2.45;;;;;;;20.86;52.41;97684.81;10321601;28;20130;-63
2023/09/17 22:10:45;;;;;;;5.65;2.47;;;;;;;20.83;52.69;97680.47;10337374;28;20092;-63
2023/09/17 22:16:06;;;;;;;3.47;2.33;;;;;;;20.82;53.20;97678.31;10322348;28;20050;-63
2023/09/17 22:21:27;;;;;;;7.07;2.75;;;;;;;20.77;53.02;97668.25;10336486;28;20153;-63
2023/09/17 22:26:48;;;;;;;3.72;2.85;;;;;;;20.68;53.28;97675.81;10336335;28;20136;-63
2023/09/17 22:32:09;;;;;;;3.60;2.25;;;;;;;20.57;53.47;97666.31;10321883;28;20047;-63
2023/09/17 22:37:30;;;;;;;3.42;2.28;;;;;;;20.53;53.97;97665.47;10336351;28;20077;-62
2023/09/17 22:42:51;;;;;;;4.35;2.53;;;;;;;20.45;53.89;97656.75;10336019;28;20081;-62
2023/09/17 22:48:11;;;;;;;3.38;2.53;;;;;;;20.40;54.48;97653.06;10335768;28;20130;-63
2023/09/17 22:53:32;;;;;;;4.60;2.78;;;;;;;20.38;54.52;97652.28;10335856;28;20077;-63
2023/09/17 22:58:53;;;;;;;4.95;2.63;;;;;;;20.29;54.87;97648.50;10335521;28;20126;-62
2023/09/17 23:04:14;;;;;;;4.28;2.47;;;;;;;20.20;55.10;97641.88;10334876;28;20138;-63
2023/09/17 23:09:35;;;;;;;2.75;2.10;;;;;;;20.14;55.11;97638.88;10334894;28;20517;-63
2023/09/17 23:14:55;;;;;;;3.78;2.55;;;;;;;20.07;55.11;97628.75;10334641;28;20051;-63
2023/09/17 23:20:16;;;;;;;3.25;2.30;;;;;;;20.02;55.34;97639.25;10334837;28;20076;-63
2023/09/17 23:25:37;;;;;;;4.68;2.78;;;;;;;19.95;55.17;97642.56;10334566;28;20468;-63
2023/09/17 23:31:03;;;;;;;4.63;2.30;;;;;;;19.93;55.66;97636.84;10334130;28;20086;-63
2023/09/17 23:36:27;;;;;;;6.10;2.50;;;;;;;19.93;55.59;97634.00;10334309;28;20546;-63
2023/09/17 23:41:47;;;;;;;3.43;2.40;;;;;;;19.93;55.73;97631.19;10319787;28;20105;-63
2023/09/17 23:47:08;;;;;;;2.58;2.08;;;;;;;19.87;55.87;97631.72;10333953;28;20046;-63
2023/09/17 23:52:29;;;;;;;3.03;2.40;;;;;;;19.85;55.94;97631.66;10334037;28;20521;-62
2023/09/17 23:57:49;;;;;;;7.25;2.40;;;;;;;19.85;56.36;97636.59;10333717;28;20554;-63
